createdAt,value
2022-10-06T00:00:48.121Z,102105.97
2022-10-06T00:03:15.331Z,102106.13
2022-10-06T00:05:42.472Z,102110.50
2022-10-06T00:08:10.348Z,102130.50
2022-10-06T00:10:37.213Z,102124.09
2022-10-06T00:13:03.679Z,102136.00
2022-10-06T00:15:32.114Z,102135.03
2022-10-06T00:17:59.084Z,102139.69
2022-10-06T00:20:26.696Z,102147.63
2022-10-06T00:22:53.277Z,102151.34
2022-10-06T00:25:22.311Z,102155.75
2022-10-06T00:27:51.100Z,102167.09
2022-10-06T00:30:20.901Z,102166.25
2022-10-06T00:32:57.110Z,102172.47
2022-10-06T00:35:29.103Z,102185.00
2022-10-06T00:37:55.495Z,102189.69
2022-10-06T00:40:22.533Z,102193.31
2022-10-06T00:43:10.987Z,102191.91
2022-10-06T00:45:44.997Z,102202.78
2022-10-06T00:48:23.888Z,102209.03
2022-10-06T00:50:57.258Z,102219.75
2022-10-06T00:53:28.198Z,102224.19
2022-10-06T00:55:55.504Z,102228.69
2022-10-06T00:58:21.959Z,102230.66
2022-10-06T01:00:53.973Z,102236.19
2022-10-06T01:03:31.623Z,102247.69
2022-10-06T01:06:00.010Z,102241.88
2022-10-06T01:08:27.199Z,102249.03
2022-10-06T01:10:53.992Z,102256.09
2022-10-06T01:13:20.670Z,102255.25
2022-10-06T01:15:56.071Z,102262.19
2022-10-06T01:18:27.187Z,102271.91
2022-10-06T01:21:02.095Z,102273.84
2022-10-06T01:23:31.721Z,102279.38
2022-10-06T01:26:01.286Z,102292.81
2022-10-06T01:28:28.512Z,102293.94
2022-10-06T01:30:57.795Z,102290.66
2022-10-06T01:33:24.317Z,102295.22
2022-10-06T01:35:52.612Z,102304.94
2022-10-06T01:38:21.796Z,102312.00
2022-10-06T01:40:50.088Z,102315.56
2022-10-06T01:43:16.561Z,102311.41
2022-10-06T01:45:43.108Z,102319.47
2022-10-06T01:48:09.701Z,102322.25
2022-10-06T01:50:36.127Z,102312.91
2022-10-06T01:53:02.618Z,102306.16
2022-10-06T01:55:29.071Z,102315.06
2022-10-06T01:57:55.519Z,102327.28
2022-10-06T02:00:22.003Z,102325.69
2022-10-06T02:02:48.376Z,102332.78
2022-10-06T02:05:15.626Z,102331.31
2022-10-06T02:07:42.161Z,102342.03
2022-10-06T02:10:09.065Z,102346.53
2022-10-06T02:12:37.180Z,102351.09
2022-10-06T02:15:05.350Z,102355.56
2022-10-06T02:17:32.251Z,102355.56
2022-10-06T02:19:58.712Z,102366.03
2022-10-06T02:22:25.269Z,102367.94
2022-10-06T02:24:51.778Z,102372.50
2022-10-06T02:27:18.171Z,102370.97
2022-10-06T02:29:45.158Z,102377.25
2022-10-06T02:32:11.560Z,102380.00
2022-10-06T02:34:38.340Z,102372.22
2022-10-06T02:37:05.282Z,102369.69
2022-10-06T02:39:31.670Z,102374.34
2022-10-06T02:41:58.154Z,102373.56
2022-10-06T02:44:25.215Z,102375.38
2022-10-06T02:46:52.633Z,102392.84
2022-10-06T02:49:19.165Z,102392.84
2022-10-06T02:51:45.603Z,102397.34
2022-10-06T02:54:12.680Z,102405.41
2022-10-06T02:56:39.074Z,102409.88
2022-10-06T02:59:05.455Z,102416.88
2022-10-06T03:01:31.898Z,102417.81
2022-10-06T03:03:58.516Z,102423.13
2022-10-06T03:06:27.908Z,102424.13
2022-10-06T03:08:59.100Z,102442.56
2022-10-06T03:11:28.572Z,102441.78
2022-10-06T03:13:55.789Z,102442.78
2022-10-06T03:16:23.927Z,102447.19
2022-10-06T03:18:52.176Z,102450.00
2022-10-06T03:21:20.983Z,102457.00
2022-10-06T03:23:49.174Z,102451.94
2022-10-06T03:26:17.649Z,102460.72
2022-10-06T03:28:45.090Z,102459.97
2022-10-06T03:31:12.392Z,102469.69
2022-10-06T03:33:39.050Z,102474.94
2022-10-06T03:36:11.116Z,102475.03
2022-10-06T03:38:38.295Z,102474.25
2022-10-06T03:41:11.128Z,102481.34
2022-10-06T03:43:38.938Z,102484.00
2022-10-06T03:46:06.949Z,102489.31
2022-10-06T03:48:35.208Z,102487.72
2022-10-06T03:51:04.863Z,102496.47
2022-10-06T03:53:31.783Z,102506.06
2022-10-06T03:56:11.302Z,102512.13
2022-10-06T03:58:40.385Z,102514.84
2022-10-06T04:01:10.824Z,102512.41
2022-10-06T04:03:37.437Z,102514.25
2022-10-06T04:06:06.032Z,102517.72
2022-10-06T04:08:34.235Z,102525.63
2022-10-06T04:11:31.505Z,102538.63
2022-10-06T04:14:00.537Z,102543.06
2022-10-06T04:16:29.606Z,102536.19
2022-10-06T04:18:58.185Z,102548.41
2022-10-06T04:21:26.055Z,102547.63
2022-10-06T04:23:54.416Z,102553.72
2022-10-06T04:26:22.724Z,102557.25
2022-10-06T04:28:49.695Z,102566.84
2022-10-06T04:31:22.242Z,102570.38
2022-10-06T04:33:52.258Z,102573.88
2022-10-06T04:36:29.363Z,102575.69
2022-10-06T04:38:58.205Z,102580.06
2022-10-06T04:41:31.807Z,102579.19
2022-10-06T04:43:58.836Z,102587.91
2022-10-06T04:46:43.898Z,102586.22
2022-10-06T04:49:17.873Z,102593.22
2022-10-06T04:51:46.332Z,102602.00
2022-10-06T04:54:12.844Z,102603.84
2022-10-06T04:56:39.287Z,102604.75
2022-10-06T04:59:05.724Z,102611.75
2022-10-06T05:01:34.417Z,102611.88
2022-10-06T05:04:02.935Z,102615.41
2022-10-06T05:06:35.574Z,102615.50
2022-10-06T05:09:13.450Z,102619.91
2022-10-06T05:11:39.864Z,102621.72
2022-10-06T05:14:06.780Z,102627.00
2022-10-06T05:16:34.558Z,102632.25
2022-10-06T05:19:01.098Z,102635.78
2022-10-06T05:21:32.370Z,102641.03
2022-10-06T05:23:59.469Z,102643.75
2022-10-06T05:26:29.057Z,102644.69
2022-10-06T05:28:55.692Z,102649.06
2022-10-06T05:31:29.666Z,102658.72
2022-10-06T05:33:57.217Z,102656.97
2022-10-06T05:36:28.793Z,102662.19
2022-10-06T05:38:57.170Z,102668.28
2022-10-06T05:41:27.833Z,102678.75
2022-10-06T05:43:54.731Z,102671.00
2022-10-06T05:46:24.839Z,102669.31
2022-10-06T05:48:55.440Z,102682.34
2022-10-06T05:51:30.050Z,102684.97
2022-10-06T05:53:57.663Z,102689.34
2022-10-06T05:56:29.179Z,102692.78
2022-10-06T05:58:57.266Z,102697.09
2022-10-06T06:01:41.849Z,102695.41
2022-10-06T06:04:11.071Z,102703.22
2022-10-06T06:06:43.303Z,102703.19
2022-10-06T06:09:12.510Z,102710.09
2022-10-06T06:11:41.833Z,102721.34
2022-10-06T06:14:12.474Z,102717.75
2022-10-06T06:16:41.140Z,102717.69
2022-10-06T06:19:11.488Z,102721.09
2022-10-06T06:21:39.366Z,102727.06
2022-10-06T06:24:07.349Z,102731.38
2022-10-06T06:26:36.889Z,102735.56
2022-10-06T06:29:04.015Z,102733.72
2022-10-06T06:31:36.743Z,102728.41
2022-10-06T06:34:07.701Z,102734.34
2022-10-06T06:36:46.996Z,102732.47
2022-10-06T06:39:15.752Z,102739.25
2022-10-06T06:41:47.051Z,102752.16
2022-10-06T06:44:14.276Z,102751.09
2022-10-06T06:46:43.349Z,102755.19
2022-10-06T06:49:11.994Z,102770.69
2022-10-06T06:51:41.400Z,102767.91
2022-10-06T06:54:08.972Z,102770.31
2022-10-06T06:56:36.180Z,102772.75
2022-10-06T06:59:06.575Z,102777.78
2022-10-06T07:01:33.070Z,102774.03
2022-10-06T07:03:59.628Z,102785.09
2022-10-06T07:06:28.877Z,102787.53
2022-10-06T07:08:56.865Z,102789.88
2022-10-06T07:11:24.808Z,102793.06
2022-10-06T07:13:53.605Z,102787.56
2022-10-06T07:16:40.387Z,102790.84
2022-10-06T07:19:26.312Z,102792.34
2022-10-06T07:22:14.595Z,102798.19
2022-10-06T07:24:59.989Z,102804.94
2022-10-06T07:27:28.109Z,102811.69
2022-10-06T07:29:56.653Z,102814.03
2022-10-06T07:32:25.261Z,102827.69
2022-10-06T07:34:52.410Z,102830.00
2022-10-06T07:37:19.911Z,102834.03
2022-10-06T07:39:49.518Z,102840.72
2022-10-06T07:42:22.010Z,102850.03
2022-10-06T07:45:07.005Z,102841.03
2022-10-06T07:47:33.955Z,102859.19
2022-10-06T07:50:01.334Z,102858.06
2022-10-06T07:52:31.022Z,102858.00
2022-10-06T07:54:58.384Z,102858.53
2022-10-06T07:57:35.049Z,102860.94
2022-10-06T08:00:05.491Z,102870.25
2022-10-06T08:02:35.467Z,102864.84
2022-10-06T08:05:03.040Z,102868.84
2022-10-06T08:07:29.398Z,102865.91
2022-10-06T08:09:55.746Z,102868.31
2022-10-06T08:12:33.978Z,102866.28
2022-10-06T08:15:06.026Z,102870.47
2022-10-06T08:17:36.123Z,102876.31
2022-10-06T08:20:04.398Z,102877.75
2022-10-06T08:22:30.833Z,102884.44
2022-10-06T08:25:07.686Z,102885.06
2022-10-06T08:27:35.230Z,102894.41
2022-10-06T08:30:02.709Z,102892.41
2022-10-06T08:32:29.988Z,102893.13
2022-10-06T08:34:56.807Z,102899.84
2022-10-06T08:37:23.836Z,102904.75
2022-10-06T08:39:54.464Z,102902.63
2022-10-06T08:42:26.441Z,102911.13
2022-10-06T08:44:59.378Z,102909.41
2022-10-06T08:47:30.027Z,102918.84
2022-10-06T08:49:57.456Z,102922.06
2022-10-06T08:52:41.256Z,102931.19
2022-10-06T08:55:07.613Z,102937.22
2022-10-06T08:57:50.651Z,102940.31
2022-10-06T09:00:21.266Z,102927.75
2022-10-06T09:02:49.967Z,102928.25
2022-10-06T09:05:25.393Z,102935.97
2022-10-06T09:08:12.333Z,102934.84
2022-10-06T09:10:49.228Z,102939.09
2022-10-06T09:13:22.350Z,102950.38
2022-10-06T09:15:58.629Z,102944.78
2022-10-06T09:18:56.065Z,102952.56
2022-10-06T09:21:30.203Z,102953.88
2022-10-06T09:24:05.106Z,102954.88
2022-10-06T09:26:33.073Z,102949.91
2022-10-06T09:29:00.312Z,102956.03
2022-10-06T09:31:37.690Z,102956.03
2022-10-06T09:34:15.327Z,102961.31
2022-10-06T09:37:07.440Z,102961.75
2022-10-06T09:39:37.097Z,102953.63
2022-10-06T09:42:13.294Z,102957.84
2022-10-06T09:44:46.941Z,102954.25
2022-10-06T09:47:41.756Z,102967.66
2022-10-06T09:50:27.515Z,102973.00
2022-10-06T09:53:06.078Z,102966.97
2022-10-06T09:55:39.719Z,102978.13
2022-10-06T09:58:20.731Z,102977.56
2022-10-06T10:01:00.092Z,102973.78
2022-10-06T10:04:21.926Z,102976.41
2022-10-06T10:06:48.928Z,102969.31
2022-10-06T10:09:21.688Z,102972.66
2022-10-06T10:12:27.751Z,102971.75
2022-10-06T10:15:01.387Z,102967.47
2022-10-06T10:17:39.682Z,102973.53
2022-10-06T10:20:28.326Z,102970.44
2022-10-06T10:22:58.303Z,102968.75
2022-10-06T10:25:46.887Z,102969.78
2022-10-06T10:28:17.027Z,102976.41
2022-10-06T10:31:05.365Z,102972.94
2022-10-06T10:33:59.458Z,102979.75
2022-10-06T10:36:41.320Z,102980.41
2022-10-06T10:39:15.537Z,102974.47
2022-10-06T10:41:49.002Z,102981.69
2022-10-06T10:44:29.271Z,102983.56
2022-10-06T10:47:05.352Z,102979.53
2022-10-06T10:49:34.942Z,102982.50
2022-10-06T10:52:11.895Z,102987.56
2022-10-06T10:54:43.798Z,102993.75
2022-10-06T10:57:15.151Z,102993.22
2022-10-06T10:59:47.509Z,102992.69
2022-10-06T11:02:20.559Z,102997.72
2022-10-06T11:04:52.850Z,102994.38
2022-10-06T11:07:31.047Z,102992.41
2022-10-06T11:09:57.319Z,103000.44
2022-10-06T11:12:45.621Z,103006.09
2022-10-06T11:15:11.891Z,103007.41
2022-10-06T11:17:46.899Z,103020.69
2022-10-06T11:20:30.473Z,103009.81
2022-10-06T11:23:15.117Z,103016.63
2022-10-06T11:26:09.710Z,103008.63
2022-10-06T11:28:44.737Z,103009.59
2022-10-06T11:31:31.505Z,102999.66
2022-10-06T11:34:03.425Z,102995.41
2022-10-06T11:36:48.962Z,103006.50
2022-10-06T11:39:47.495Z,102996.53
2022-10-06T11:42:25.839Z,103002.44
2022-10-06T11:45:03.073Z,103009.00
2022-10-06T11:47:52.490Z,103008.50
2022-10-06T11:50:41.726Z,103003.91
2022-10-06T11:53:34.363Z,102998.78
2022-10-06T11:56:19.288Z,102992.22
2022-10-06T11:58:51.883Z,102999.06
2022-10-06T12:01:45.105Z,102986.25
2022-10-06T12:04:11.454Z,102995.56
2022-10-06T12:06:46.977Z,102989.28
2022-10-06T12:09:25.775Z,102984.06
2022-10-06T12:11:53.888Z,102976.91
2022-10-06T12:17:46.252Z,102983.47
2022-10-06T12:20:39.151Z,102988.22
2022-10-06T12:23:08.494Z,102983.28
2022-10-06T12:25:59.225Z,102982.34
2022-10-06T12:28:35.671Z,102978.09
2022-10-06T12:31:40.283Z,102982.53
2022-10-06T12:34:44.185Z,102979.66
2022-10-06T12:37:41.298Z,102976.91
2022-10-06T12:40:42.742Z,102977.66
2022-10-06T12:43:14.859Z,102983.25
2022-10-06T12:45:46.274Z,102984.00
2022-10-06T12:48:34.612Z,102982.56
2022-10-06T12:51:18.997Z,102980.75
2022-10-06T12:53:52.298Z,102977.63
2022-10-06T12:56:35.600Z,102984.09
2022-10-06T12:59:34.681Z,102971.78
2022-10-06T13:02:07.790Z,102975.19
2022-10-06T13:04:42.533Z,102978.25
2022-10-06T13:07:18.055Z,102977.06
2022-10-06T13:09:46.022Z,102977.91
2022-10-06T13:12:36.752Z,102977.81
2022-10-06T13:15:09.894Z,102975.88
2022-10-06T13:17:42.295Z,102977.66
2022-10-06T13:20:19.378Z,102972.72
2022-10-06T13:22:45.837Z,102984.31
2022-10-06T13:25:13.837Z,102979.22
2022-10-06T13:27:40.210Z,102981.25
2022-10-06T13:30:19.004Z,102978.19
2022-10-06T13:32:46.028Z,102978.34
2022-10-06T13:35:12.751Z,102984.38
2022-10-06T13:37:39.508Z,102976.78
2022-10-06T13:40:21.704Z,102986.09
2022-10-06T13:42:48.488Z,102976.28
2022-10-06T13:45:15.242Z,102983.63
2022-10-06T13:47:41.788Z,102966.72
2022-10-06T13:50:18.848Z,102979.72
2022-10-06T13:52:48.778Z,102975.00
2022-10-06T13:55:23.934Z,102977.84
2022-10-06T13:58:03.282Z,102974.94
2022-10-06T14:00:45.561Z,102984.31
2022-10-06T14:03:21.580Z,102989.34
2022-10-06T14:05:48.116Z,102986.53
2022-10-06T14:08:23.503Z,102976.13
2022-10-06T14:10:51.828Z,102985.75
2022-10-06T14:13:39.686Z,102985.28
2022-10-06T14:16:08.421Z,102985.38
2022-10-06T14:18:43.904Z,102978.63
2022-10-06T14:21:36.846Z,102981.94
2022-10-06T14:24:16.693Z,102986.63
2022-10-06T14:26:45.186Z,102977.06
2022-10-06T14:29:14.068Z,102981.50
2022-10-06T14:31:40.508Z,102985.47
2022-10-06T14:34:14.278Z,102978.56
2022-10-06T14:36:41.981Z,102983.53
2022-10-06T14:39:10.813Z,102983.53
2022-10-06T14:41:37.296Z,102979.34
2022-10-06T14:44:09.960Z,102968.94
2022-10-06T14:46:39.325Z,102970.03
2022-10-06T14:49:07.572Z,102980.28
2022-10-06T14:51:36.915Z,102975.69
2022-10-06T14:54:04.799Z,102975.84
2022-10-06T14:56:33.796Z,102974.16
2022-10-06T14:59:05.495Z,102969.56
2022-10-06T15:01:34.127Z,102966.91
2022-10-06T15:04:03.797Z,102964.44
2022-10-06T15:06:49.078Z,102965.53
2022-10-06T15:09:15.479Z,102968.53
2022-10-06T15:11:42.123Z,102954.56
2022-10-06T15:14:09.764Z,102957.28
2022-10-06T15:16:40.541Z,102953.88
2022-10-06T15:19:07.069Z,102961.72
2022-10-06T15:21:34.183Z,102956.44
2022-10-06T15:24:04.691Z,102959.00
2022-10-06T15:26:50.485Z,102966.22
2022-10-06T15:29:20.916Z,102953.13
2022-10-06T15:31:52.139Z,102953.72
2022-10-06T15:34:21.276Z,102959.13
2022-10-06T15:36:52.218Z,102960.13
2022-10-06T15:39:20.991Z,102959.59
2022-10-06T15:41:48.453Z,102960.53
2022-10-06T15:44:15.795Z,102957.34
2022-10-06T15:46:50.234Z,102960.56
2022-10-06T15:49:21.741Z,102948.59
2022-10-06T15:51:56.783Z,102958.44
2022-10-06T15:54:28.737Z,102963.84
2022-10-06T15:56:57.861Z,102960.50
2022-10-06T15:59:26.209Z,102959.31
2022-10-06T16:01:56.294Z,102962.94
2022-10-06T16:04:34.319Z,102964.03
2022-10-06T16:07:02.133Z,102964.22
2022-10-06T16:09:35.446Z,102957.50
2022-10-06T16:12:05.507Z,102954.25
2022-10-06T16:14:32.574Z,102967.53
2022-10-06T16:17:00.228Z,102965.91
2022-10-06T16:19:28.741Z,102968.66
2022-10-06T16:21:58.888Z,102967.25
2022-10-06T16:24:26.509Z,102965.88
2022-10-06T16:26:53.664Z,102964.44
2022-10-06T16:29:21.703Z,102964.56
2022-10-06T16:31:48.734Z,102975.38
2022-10-06T16:34:16.544Z,102973.28
2022-10-06T16:36:43.094Z,102974.47
2022-10-06T16:39:22.825Z,102966.03
2022-10-06T16:41:50.192Z,102975.94
2022-10-06T16:44:17.583Z,102978.81
2022-10-06T16:46:44.152Z,102976.56
2022-10-06T16:49:10.935Z,102978.66
2022-10-06T16:51:43.670Z,102980.75
2022-10-06T16:54:13.393Z,102975.72
2022-10-06T16:56:48.503Z,102969.94
2022-10-06T17:00:00.311Z,102974.69
2022-10-06T17:02:26.754Z,102971.44
2022-10-06T17:04:53.140Z,102974.31
2022-10-06T17:07:19.595Z,102970.28
2022-10-06T17:10:01.558Z,102977.59
2022-10-06T17:12:32.535Z,102981.47
2022-10-06T17:14:58.874Z,102977.59
2022-10-06T17:17:25.336Z,102980.47
2022-10-06T17:19:52.969Z,102983.38
2022-10-06T17:22:19.373Z,102978.38
2022-10-06T17:24:45.849Z,102976.06
2022-10-06T17:27:12.225Z,102973.81
2022-10-06T17:29:39.057Z,102973.31
2022-10-06T17:32:05.486Z,102972.66
2022-10-06T17:34:34.220Z,102970.19
2022-10-06T17:37:01.914Z,102977.47
2022-10-06T17:39:28.301Z,102968.03
2022-10-06T17:41:54.726Z,102976.09
2022-10-06T17:44:25.732Z,102974.44
2022-10-06T17:46:55.205Z,102964.16
2022-10-06T17:49:22.587Z,102967.84
2022-10-06T17:51:51.324Z,102965.38
2022-10-06T17:54:20.743Z,102967.34
2022-10-06T17:56:50.143Z,102964.06
2022-10-06T17:59:31.327Z,102973.84
2022-10-06T18:01:59.930Z,102970.63
2022-10-06T18:04:26.962Z,102973.44
2022-10-06T18:06:54.124Z,102972.84
2022-10-06T18:09:21.792Z,102970.34
2022-10-06T18:11:48.582Z,102967.72
2022-10-06T18:14:17.299Z,102960.88
2022-10-06T18:16:55.657Z,102968.84
2022-10-06T18:19:33.307Z,102955.94
2022-10-06T18:22:13.634Z,102962.19
2022-10-06T18:24:40.382Z,102960.63
2022-10-06T18:27:08.012Z,102967.00
2022-10-06T18:29:36.917Z,102968.09
2022-10-06T18:37:38.397Z,102958.66
2022-10-06T18:40:08.497Z,102966.56
2022-10-06T18:42:34.954Z,102958.81
2022-10-06T18:45:19.970Z,102963.31
2022-10-06T18:48:04.741Z,102960.94
2022-10-06T18:50:32.123Z,102960.25
2022-10-06T18:52:58.570Z,102962.91
2022-10-06T18:55:26.393Z,102956.03
2022-10-06T18:57:52.840Z,102958.72
2022-10-06T19:00:19.251Z,102957.94
2022-10-06T19:02:48.491Z,102952.81
2022-10-06T19:05:17.249Z,102950.28
2022-10-06T19:07:44.115Z,102957.38
2022-10-06T19:10:11.007Z,102954.81
2022-10-06T19:12:37.365Z,102953.88
2022-10-06T19:15:04.028Z,102954.78
2022-10-06T19:17:30.513Z,102956.47
2022-10-06T19:19:56.992Z,102957.38
2022-10-06T19:22:25.033Z,102954.78
2022-10-06T19:24:52.511Z,102959.19
2022-10-06T19:27:24.037Z,102960.25
2022-10-06T19:29:54.351Z,102963.03
2022-10-06T19:32:26.842Z,102961.50
2022-10-06T19:34:54.836Z,102959.03
2022-10-06T19:37:21.390Z,102961.78
2022-10-06T19:39:49.955Z,102964.38
2022-10-06T19:42:36.204Z,102966.09
2022-10-06T19:45:03.039Z,102954.88
2022-10-06T19:47:29.708Z,102955.91
2022-10-06T19:50:00.794Z,102959.47
2022-10-06T19:52:31.124Z,102957.78
2022-10-06T19:54:58.042Z,102957.00
2022-10-06T19:57:25.038Z,102965.84
2022-10-06T19:59:51.411Z,102960.00
2022-10-06T20:02:17.867Z,102962.63
2022-10-06T20:04:45.316Z,102964.44
2022-10-06T20:07:11.800Z,102961.81
2022-10-06T20:09:38.283Z,102961.00
2022-10-06T20:12:05.801Z,102962.03
2022-10-06T20:14:32.199Z,102962.94
2022-10-06T20:16:58.681Z,102963.09
2022-10-06T20:19:25.429Z,102958.88
2022-10-06T20:21:52.595Z,102955.44
2022-10-06T20:24:24.807Z,102958.16
2022-10-06T20:26:53.320Z,102964.44
2022-10-06T20:29:28.776Z,102953.31
2022-10-06T20:31:58.241Z,102956.91
2022-10-06T20:34:31.610Z,102954.38
2022-10-06T20:37:00.053Z,102959.75
2022-10-06T20:39:45.049Z,102965.06
2022-10-06T20:42:15.119Z,102963.56
2022-10-06T20:44:42.499Z,102967.28
2022-10-06T20:47:11.174Z,102965.63
2022-10-06T20:49:37.649Z,102960.41
2022-10-06T20:52:05.726Z,102963.03
2022-10-06T20:54:37.311Z,102964.72
2022-10-06T20:57:06.223Z,102956.00
2022-10-06T20:59:35.269Z,102959.50
2022-10-06T21:02:02.441Z,102953.38
2022-10-06T21:04:29.374Z,102956.97
2022-10-06T21:06:56.172Z,102948.41
2022-10-06T21:09:24.210Z,102947.53
2022-10-06T21:11:50.752Z,102949.44
2022-10-06T21:14:17.694Z,102947.66
2022-10-06T21:16:46.575Z,102945.97
2022-10-06T21:19:15.519Z,102944.31
2022-10-06T21:21:43.652Z,102935.75
2022-10-06T21:24:10.147Z,102941.88
2022-10-06T21:26:42.315Z,102943.66
2022-10-06T21:29:14.090Z,102937.59
2022-10-06T21:31:41.400Z,102945.44
2022-10-06T21:34:07.971Z,102941.97
2022-10-06T21:36:35.295Z,102936.88
2022-10-06T21:39:04.348Z,102935.97
2022-10-06T21:41:34.976Z,102936.03
2022-10-06T21:44:10.161Z,102929.16
2022-10-06T21:46:46.809Z,102925.75
2022-10-06T21:49:15.983Z,102924.81
2022-10-06T21:51:45.561Z,102921.31
2022-10-06T21:54:12.349Z,102914.34
2022-10-06T21:56:39.910Z,102917.81
2022-10-06T21:59:07.398Z,102918.75
2022-10-06T22:01:36.975Z,102905.78
2022-10-06T22:04:04.077Z,102902.34
2022-10-06T22:06:32.559Z,102896.28
2022-10-06T22:09:00.247Z,102890.22
2022-10-06T22:11:29.343Z,102887.66
2022-10-06T22:26:08.567Z,102866.16
2022-10-06T22:28:35.695Z,102873.09
2022-10-06T22:31:06.903Z,102868.72
2022-10-06T22:33:33.973Z,102867.91
2022-10-06T22:36:01.746Z,102871.44
2022-10-06T22:38:28.861Z,102859.38
2022-10-06T22:41:02.614Z,102861.28
2022-10-06T22:43:30.176Z,102858.75
2022-10-06T22:45:56.913Z,102855.22
2022-10-06T22:48:24.135Z,102846.59
2022-10-06T22:50:51.424Z,102848.38
2022-10-06T22:53:19.960Z,102846.72
2022-10-06T22:55:46.739Z,102846.78
2022-10-06T22:58:14.454Z,102846.81
2022-10-06T23:00:41.809Z,102845.13
2022-10-06T23:03:08.741Z,102839.97
2022-10-06T23:05:36.109Z,102836.50
2022-10-06T23:08:03.900Z,102831.25
2022-10-06T23:10:30.689Z,102825.19
2022-10-06T23:12:58.265Z,102817.25
2022-10-06T23:15:25.711Z,102816.34
2022-10-06T23:17:52.560Z,102811.09
2022-10-06T23:20:19.472Z,102810.25
2022-10-06T23:22:46.019Z,102812.00
2022-10-06T23:25:13.203Z,102811.25
2022-10-06T23:27:40.477Z,102811.28
2022-10-06T23:30:07.823Z,102817.38
2022-10-06T23:32:37.389Z,102815.56
2022-10-06T23:35:05.065Z,102804.16
2022-10-06T23:37:31.526Z,102802.47
2022-10-06T23:39:58.063Z,102799.91
2022-10-06T23:42:24.750Z,102792.09
2022-10-06T23:44:51.245Z,102798.09
2022-10-06T23:47:18.209Z,102798.00
2022-10-06T23:49:44.616Z,102787.50
2022-10-06T23:52:11.324Z,102791.84
2022-10-06T23:54:37.850Z,102791.75
2022-10-06T23:57:04.311Z,102791.75
2022-10-06T23:59:31.532Z,102789.25
